Time;durP1;ratioP1;P1;durP2;ratioP2;P2;SDS_P1;SDS_P2;PMS_P1;PMS_P2;Temp;Humidity;BMP_temperature;BMP_pressure;BME280_temperature;BME280_humidity;BME280_pressure;Samples;Min_cycle;Max_cycle;Signal;HPM_P1;HPM_P2
2023/05/30 00:01:21;;;;;;;15.73;3.63;;;9.60;99.90;;;;;;5069066;28;20433;-61
2023/05/30 00:03:48;;;;;;;12.48;2.65;;;9.70;99.90;;;;;;5070823;28;20040;-62
2023/05/30 00:06:15;;;;;;;8.38;2.45;;;9.60;99.90;;;;;;5071169;28;20040;-63
2023/05/30 00:08:42;;;;;;;11.43;3.00;;;9.60;99.90;;;;;;5070724;28;20045;-62
2023/05/30 00:11:09;;;;;;;15.90;3.25;;;9.60;99.90;;;;;;5069847;28;20047;-64
2023/05/30 00:13:35;;;;;;;13.50;3.22;;;9.70;99.90;;;;;;5068964;28;20049;-61
2023/05/30 00:16:03;;;;;;;16.88;3.38;;;9.70;99.90;;;;;;5070278;28;20041;-64
2023/05/30 00:18:34;;;;;;;10.85;3.35;;;9.80;99.90;;;;;;5067285;28;20098;-63
2023/05/30 00:21:03;;;;;;;11.70;3.35;;;9.80;99.90;;;;;;5070894;28;20090;-64
2023/05/30 00:23:29;;;;;;;16.40;3.17;;;9.90;99.90;;;;;;5070695;28;20036;-64
2023/05/30 00:25:56;;;;;;;11.10;3.17;;;10.00;99.90;;;;;;5069728;28;20487;-64
2023/05/30 00:28:25;;;;;;;14.18;3.10;;;10.00;99.90;;;;;;5070219;28;20044;-64
2023/05/30 00:30:52;;;;;;;13.30;3.60;;;10.10;99.90;;;;;;5055230;28;20109;-62
2023/05/30 00:33:17;;;;;;;12.20;3.08;;;10.20;99.90;;;;;;5052839;28;20392;-64
2023/05/30 00:35:43;;;;;;;11.60;2.95;;;10.20;99.90;;;;;;5069054;28;20173;-61
2023/05/30 00:38:08;;;;;;;14.93;3.72;;;10.30;99.90;;;;;;5070561;28;20044;-64
2023/05/30 00:40:34;;;;;;;10.90;3.55;;;10.30;99.90;;;;;;5068083;28;20100;-63
2023/05/30 00:43:00;;;;;;;11.38;3.17;;;10.30;99.90;;;;;;5070634;28;20097;-63
2023/05/30 00:45:25;;;;;;;11.55;3.15;;;10.30;99.90;;;;;;5074182;28;20082;-62
2023/05/30 00:47:53;;;;;;;11.40;2.80;;;10.40;99.90;;;;;;5070000;28;20079;-63
2023/05/30 00:50:20;;;;;;;13.77;2.78;;;10.40;99.90;;;;;;5069445;28;20049;-63
2023/05/30 00:52:47;;;;;;;11.35;3.10;;;10.40;99.90;;;;;;5069478;28;20044;-65
2023/05/30 00:55:16;;;;;;;9.60;2.70;;;10.40;99.90;;;;;;5070933;28;20047;-63
2023/05/30 00:57:43;;;;;;;13.57;2.92;;;10.40;99.90;;;;;;5052217;28;20052;-62
2023/05/30 01:00:10;;;;;;;15.43;3.08;;;10.40;99.90;;;;;;5068004;28;20384;-61
2023/05/30 01:02:38;;;;;;;12.60;2.70;;;10.50;99.90;;;;;;5068057;28;20119;-63
2023/05/30 01:05:04;;;;;;;11.38;3.03;;;10.50;99.90;;;;;;5073778;28;20055;-61
2023/05/30 01:07:31;;;;;;;10.10;2.97;;;10.50;99.90;;;;;;5068477;28;20433;-65
2023/05/30 01:09:57;;;;;;;13.77;2.88;;;10.50;99.90;;;;;;5068285;28;20048;-63
2023/05/30 01:12:41;;;;;;;11.30;3.00;;;10.50;99.90;;;;;;5066496;28;20044;-63
2023/05/30 01:15:17;;;;;;;12.25;3.30;;;10.50;99.90;;;;;;5069505;28;20086;-65
2023/05/30 01:18:04;;;;;;;11.27;2.92;;;10.50;99.90;;;;;;5070380;28;20564;-65
2023/05/30 01:20:44;;;;;;;10.00;3.53;;;10.50;99.90;;;;;;5070309;28;20440;-63
2023/05/30 01:23:09;;;;;;;11.15;3.22;;;10.50;99.90;;;;;;5068228;28;20045;-61
2023/05/30 01:25:38;;;;;;;12.60;3.65;;;10.50;99.90;;;;;;5069299;28;20040;-62
2023/05/30 01:28:21;;;;;;;11.55;3.83;;;10.60;99.90;;;;;;5075317;28;20044;-64
2023/05/30 01:30:48;;;;;;;;;;;10.50;99.90;;;;;;5073267;28;20407;-63
2023/05/30 01:33:14;;;;;;;12.68;3.92;;;10.60;99.90;;;;;;5068482;28;19947;-63
2023/05/30 01:35:46;;;;;;;11.57;3.80;;;10.50;99.90;;;;;;5068164;28;20162;-62
2023/05/30 01:38:12;;;;;;;;;;;10.50;99.90;;;;;;5068505;28;20048;-64
2023/05/30 01:40:40;;;;;;;11.75;3.55;;;10.50;99.90;;;;;;5050050;28;19927;-61
2023/05/30 01:43:28;;;;;;;11.15;4.18;;;10.50;99.90;;;;;;5067980;28;20049;-62
2023/05/30 01:46:15;;;;;;;10.13;3.63;;;10.50;99.90;;;;;;5052140;28;20044;-63
2023/05/30 01:48:53;;;;;;;8.27;2.95;;;10.60;99.90;;;;;;5069129;28;20045;-62
2023/05/30 01:51:26;;;;;;;8.40;3.17;;;10.50;99.90;;;;;;5069276;28;20486;-65
2023/05/30 01:53:59;;;;;;;13.82;3.55;;;10.60;99.90;;;;;;5067835;28;20033;-64
2023/05/30 01:56:27;;;;;;;13.25;3.35;;;10.60;99.90;;;;;;5068955;28;20051;-63
2023/05/30 01:58:54;;;;;;;11.13;3.90;;;10.60;99.90;;;;;;5068487;28;20402;-64
2023/05/30 02:01:25;;;;;;;12.90;3.17;;;10.60;99.90;;;;;;5069645;28;20033;-63
2023/05/30 02:03:51;;;;;;;9.13;3.25;;;10.60;99.90;;;;;;5068700;28;20047;-64
2023/05/30 02:06:17;;;;;;;13.50;3.03;;;10.60;99.90;;;;;;5067766;28;20473;-63
2023/05/30 02:08:42;;;;;;;14.40;3.55;;;10.60;99.90;;;;;;5070002;28;20040;-62
2023/05/30 02:11:08;;;;;;;8.13;2.83;;;10.60;99.90;;;;;;5070174;28;20090;-64
2023/05/30 02:13:34;;;;;;;10.85;3.42;;;10.60;99.90;;;;;;5069451;28;20066;-61
2023/05/30 02:15:59;;;;;;;8.93;3.30;;;10.60;99.90;;;;;;5068043;28;20036;-62
2023/05/30 02:18:27;;;;;;;11.20;2.92;;;10.60;99.90;;;;;;5069900;28;20048;-64
2023/05/30 02:20:56;;;;;;;8.70;2.80;;;10.60;99.90;;;;;;5068080;28;20067;-65
2023/05/30 02:23:22;;;;;;;10.02;3.30;;;10.60;99.90;;;;;;5068247;28;20040;-61
2023/05/30 02:25:47;;;;;;;11.65;2.58;;;10.60;99.90;;;;;;5070077;28;20040;-62
2023/05/30 02:28:13;;;;;;;10.15;3.20;;;10.60;99.90;;;;;;5067760;28;20036;-62
2023/05/30 02:30:39;;;;;;;10.00;2.70;;;10.50;99.90;;;;;;5068893;28;20170;-62
2023/05/30 02:33:05;;;;;;;10.40;2.65;;;10.60;99.90;;;;;;5066776;28;20048;-62
2023/05/30 02:35:30;;;;;;;9.75;3.28;;;10.50;99.90;;;;;;5068620;28;20040;-61
2023/05/30 02:37:56;;;;;;;7.43;2.38;;;10.50;99.90;;;;;;5067896;28;20094;-62
2023/05/30 02:40:22;;;;;;;12.40;3.47;;;10.50;99.90;;;;;;5068287;28;21523;-63
2023/05/30 02:42:49;;;;;;;11.40;3.17;;;10.50;99.90;;;;;;5064208;28;20075;-63
2023/05/30 02:45:14;;;;;;;12.07;2.90;;;10.50;99.90;;;;;;5053403;28;20059;-64
2023/05/30 02:47:40;;;;;;;12.43;3.90;;;10.50;99.90;;;;;;5067727;28;20040;-61
2023/05/30 02:50:07;;;;;;;10.27;3.00;;;10.50;99.90;;;;;;5049791;28;20049;-63
2023/05/30 02:52:32;;;;;;;10.85;2.85;;;10.40;99.90;;;;;;5067590;28;20478;-64
2023/05/30 02:54:58;;;;;;;10.55;2.60;;;10.50;99.90;;;;;;5067412;28;20051;-62
2023/05/30 02:57:24;;;;;;;9.88;2.80;;;10.50;99.90;;;;;;5069020;28;20063;-64
2023/05/30 02:59:50;;;;;;;9.90;2.97;;;10.50;99.90;;;;;;5070968;28;20036;-65
2023/05/30 03:02:16;;;;;;;13.55;3.30;;;10.50;99.90;;;;;;5067424;28;20040;-64
2023/05/30 03:04:45;;;;;;;9.48;2.70;;;10.50;99.90;;;;;;5068915;28;20455;-65
2023/05/30 03:07:17;;;;;;;13.77;3.78;;;10.50;99.90;;;;;;5054836;28;20056;-61
2023/05/30 03:09:45;;;;;;;10.80;3.38;;;10.50;99.90;;;;;;5072409;28;20483;-63
2023/05/30 03:12:11;;;;;;;12.23;3.22;;;10.50;99.90;;;;;;5072457;28;20419;-63
2023/05/30 03:14:37;;;;;;;9.10;3.13;;;10.50;99.90;;;;;;5072112;28;20040;-62
2023/05/30 03:17:03;;;;;;;14.13;3.47;;;10.60;99.90;;;;;;5075982;28;20050;-64
2023/05/30 03:19:29;;;;;;;10.40;2.72;;;10.50;99.90;;;;;;5070990;28;20050;-65
2023/05/30 03:21:56;;;;;;;10.40;3.10;;;10.50;99.90;;;;;;5104578;28;20062;-62
2023/05/30 03:24:22;;;;;;;10.00;2.88;;;10.50;99.90;;;;;;5071343;28;20736;-60
2023/05/30 03:26:48;;;;;;;10.73;2.78;;;10.60;99.90;;;;;;5071166;28;20044;-64
2023/05/30 03:29:14;;;;;;;9.45;3.20;;;10.60;99.90;;;;;;5054616;28;20055;-63
2023/05/30 03:31:40;;;;;;;11.45;2.80;;;10.60;99.90;;;;;;5070489;28;20053;-61
2023/05/30 03:34:06;;;;;;;7.05;2.92;;;10.60;99.90;;;;;;5072121;28;20417;-63
2023/05/30 03:36:31;;;;;;;11.55;3.35;;;10.60;99.90;;;;;;5070957;28;20076;-63
2023/05/30 03:38:57;;;;;;;12.93;3.60;;;10.60;99.90;;;;;;5071184;28;20407;-63
2023/05/30 03:41:23;;;;;;;7.65;2.75;;;10.60;99.90;;;;;;5071672;28;20111;-62
2023/05/30 03:43:49;;;;;;;11.93;3.00;;;10.60;99.90;;;;;;5072004;28;20394;-64
2023/05/30 03:46:16;;;;;;;12.85;3.30;;;10.60;99.90;;;;;;5070594;28;20048;-60
2023/05/30 03:48:44;;;;;;;9.43;3.00;;;10.60;99.90;;;;;;5072570;28;20032;-62
2023/05/30 03:51:11;;;;;;;10.40;3.22;;;10.70;99.90;;;;;;5071400;28;20036;-62
2023/05/30 03:53:37;;;;;;;10.43;3.20;;;10.70;99.90;;;;;;5071065;28;20562;-62
2023/05/30 03:56:02;;;;;;;12.23;3.30;;;10.70;99.90;;;;;;5071802;28;20132;-61
2023/05/30 03:58:28;;;;;;;13.95;3.17;;;10.70;99.90;;;;;;5073452;28;20071;-64
2023/05/30 04:00:54;;;;;;;12.35;3.53;;;10.70;99.90;;;;;;5071379;28;20039;-65
2023/05/30 04:03:19;;;;;;;11.20;3.10;;;10.70;99.90;;;;;;5071396;28;20044;-64
2023/05/30 04:05:47;;;;;;;8.63;3.10;;;10.70;99.90;;;;;;5072826;28;20127;-63
2023/05/30 04:08:13;;;;;;;13.50;4.15;;;10.70;99.90;;;;;;5070449;28;20044;-62
2023/05/30 04:10:40;;;;;;;7.50;3.20;;;10.80;99.90;;;;;;5073711;28;20081;-64
2023/05/30 04:13:06;;;;;;;7.53;2.65;;;10.80;99.90;;;;;;5069698;28;20072;-63
2023/05/30 04:15:32;;;;;;;12.32;3.30;;;10.80;99.90;;;;;;5070431;28;20403;-64
2023/05/30 04:18:00;;;;;;;9.55;3.45;;;10.80;99.90;;;;;;5071948;28;20052;-64
2023/05/30 04:20:26;;;;;;;16.38;4.38;;;10.80;99.90;;;;;;5071845;28;20398;-63
2023/05/30 04:22:51;;;;;;;9.15;3.00;;;10.90;99.90;;;;;;5069958;28;20043;-63
2023/05/30 04:25:17;;;;;;;12.13;3.03;;;10.90;99.90;;;;;;5069996;28;20039;-63
2023/05/30 04:27:43;;;;;;;15.63;3.83;;;11.00;99.90;;;;;;5071039;28;20036;-64
2023/05/30 04:30:10;;;;;;;10.65;3.28;;;10.90;99.90;;;;;;5070221;28;20514;-64
2023/05/30 04:32:36;;;;;;;11.13;3.20;;;11.00;99.90;;;;;;5070428;28;20125;-65
2023/05/30 04:35:03;;;;;;;9.20;3.00;;;11.00;99.90;;;;;;5070803;28;20036;-61
2023/05/30 04:37:29;;;;;;;12.60;3.25;;;11.00;99.90;;;;;;5070069;28;20082;-64
2023/05/30 04:39:58;;;;;;;12.57;3.42;;;11.00;99.90;;;;;;5071181;28;20036;-61
2023/05/30 04:42:26;;;;;;;13.98;3.55;;;11.10;99.90;;;;;;5070421;28;20041;-61
2023/05/30 04:44:55;;;;;;;13.23;3.10;;;11.10;99.90;;;;;;5069238;28;20135;-62
2023/05/30 04:47:24;;;;;;;12.25;3.03;;;11.10;99.90;;;;;;5071372;28;20114;-62
2023/05/30 04:50:00;;;;;;;9.77;3.00;;;11.10;99.90;;;;;;5069529;28;20450;-62
2023/05/30 04:52:26;;;;;;;10.15;3.13;;;11.20;99.90;;;;;;5070505;28;20040;-63
2023/05/30 04:54:52;;;;;;;13.13;3.55;;;11.20;99.90;;;;;;5069277;28;20028;-63
2023/05/30 04:57:21;;;;;;;11.18;3.00;;;11.20;99.90;;;;;;5069688;28;20380;-64
2023/05/30 04:59:47;;;;;;;12.80;3.58;;;11.30;99.90;;;;;;5070733;28;20036;-65
2023/05/30 05:02:13;;;;;;;10.65;3.38;;;11.30;99.90;;;;;;5070931;28;20056;-63
2023/05/30 05:04:39;;;;;;;12.13;3.05;;;11.30;99.90;;;;;;5070834;28;20114;-63
2023/05/30 05:07:05;;;;;;;9.45;2.92;;;11.30;99.90;;;;;;5052457;28;20052;-62
2023/05/30 05:09:31;;;;;;;11.73;3.03;;;11.30;99.90;;;;;;5069606;28;20047;-62
2023/05/30 05:11:57;;;;;;;12.68;3.33;;;11.40;99.90;;;;;;5069869;28;20427;-63
2023/05/30 05:14:23;;;;;;;14.15;3.55;;;11.40;99.90;;;;;;5070365;28;20119;-60
2023/05/30 05:16:49;;;;;;;13.32;3.08;;;11.50;99.90;;;;;;5071396;28;20045;-66
2023/05/30 05:19:14;;;;;;;10.15;3.35;;;11.50;99.90;;;;;;5070000;28;20029;-63
2023/05/30 05:21:40;;;;;;;10.82;3.10;;;11.50;99.90;;;;;;5069384;28;20063;-65
2023/05/30 05:24:07;;;;;;;17.30;3.08;;;11.50;99.90;;;;;;5068547;28;20036;-64
2023/05/30 05:26:33;;;;;;;11.15;3.30;;;11.50;99.90;;;;;;5070108;28;20064;-64
2023/05/30 05:29:00;;;;;;;11.68;3.28;;;11.60;99.90;;;;;;5069428;28;20071;-63
2023/05/30 05:31:25;;;;;;;11.10;3.33;;;11.70;99.90;;;;;;5069539;28;20039;-62
2023/05/30 05:33:51;;;;;;;12.75;4.05;;;11.70;99.90;;;;;;5072792;28;20048;-64
2023/05/30 05:36:18;;;;;;;9.88;3.22;;;11.80;99.90;;;;;;5052772;28;20051;-65
2023/05/30 05:38:44;;;;;;;9.82;3.00;;;11.80;99.90;;;;;;5068543;28;20041;-63
2023/05/30 05:41:09;;;;;;;12.13;3.67;;;11.80;99.90;;;;;;5069391;28;20040;-63
2023/05/30 05:43:36;;;;;;;10.25;3.22;;;11.90;99.90;;;;;;5068464;28;20041;-62
2023/05/30 05:46:02;;;;;;;13.38;2.85;;;12.00;99.90;;;;;;5068752;28;20033;-63
2023/05/30 05:48:28;;;;;;;9.52;2.70;;;12.00;99.90;;;;;;5069087;28;20059;-63
2023/05/30 05:50:53;;;;;;;12.90;3.08;;;12.00;99.90;;;;;;5068458;28;20422;-63
2023/05/30 05:53:20;;;;;;;13.30;3.53;;;12.10;99.90;;;;;;5070529;28;20380;-64
2023/05/30 05:55:45;;;;;;;8.60;2.95;;;12.20;99.90;;;;;;5067967;28;20040;-63
2023/05/30 05:58:12;;;;;;;13.23;3.22;;;12.30;99.90;;;;;;5066386;28;20094;-64
2023/05/30 06:00:38;;;;;;;10.90;3.10;;;12.30;99.90;;;;;;5069393;28;20036;-65
2023/05/30 06:03:04;;;;;;;11.30;3.30;;;12.40;99.90;;;;;;5062769;28;20414;-61
2023/05/30 06:05:30;;;;;;;10.23;3.05;;;12.40;99.90;;;;;;5062572;28;20094;-62
2023/05/30 06:07:57;;;;;;;9.93;3.22;;;12.40;99.90;;;;;;5065376;28;20052;-61
2023/05/30 06:10:24;;;;;;;14.57;3.13;;;12.40;99.90;;;;;;5067083;28;20045;-61
2023/05/30 06:12:50;;;;;;;17.48;3.55;;;12.40;99.90;;;;;;5068783;28;20154;-62
2023/05/30 06:15:15;;;;;;;15.20;3.40;;;12.30;99.90;;;;;;5052096;28;20519;-64
2023/05/30 06:17:41;;;;;;;12.20;3.35;;;12.30;99.90;;;;;;5067709;28;21233;-64
2023/05/30 06:20:07;;;;;;;10.65;3.60;;;12.40;99.90;;;;;;5067950;28;20436;-63
2023/05/30 06:22:33;;;;;;;14.95;3.10;;;12.40;99.90;;;;;;5097936;28;20432;-64
2023/05/30 06:24:58;;;;;;;10.75;3.70;;;12.40;99.90;;;;;;5066321;28;20063;-63
2023/05/30 06:27:24;;;;;;;11.75;3.00;;;12.50;99.90;;;;;;5067393;28;20710;-62
2023/05/30 06:29:51;;;;;;;9.13;2.63;;;12.50;99.90;;;;;;5069100;28;20098;-66
2023/05/30 06:32:17;;;;;;;11.88;2.75;;;12.50;99.90;;;;;;5064893;28;20101;-61
2023/05/30 06:34:45;;;;;;;10.35;2.85;;;12.60;99.90;;;;;;5066567;28;20060;-62
2023/05/30 06:37:14;;;;;;;10.65;2.72;;;12.60;99.90;;;;;;5067648;28;20044;-62
2023/05/30 06:39:40;;;;;;;10.40;2.95;;;12.70;99.90;;;;;;5047585;28;20080;-61
2023/05/30 06:42:10;;;;;;;10.75;3.45;;;12.70;99.90;;;;;;5070226;28;20079;-63
2023/05/30 06:44:36;;;;;;;9.70;2.83;;;12.70;99.90;;;;;;5072152;28;20044;-63
2023/05/30 06:47:03;;;;;;;8.60;3.10;;;12.70;99.90;;;;;;5072195;28;20506;-63
2023/05/30 06:49:29;;;;;;;8.50;2.88;;;12.70;99.90;;;;;;5070036;28;20040;-66
2023/05/30 06:51:55;;;;;;;12.98;3.15;;;12.70;99.90;;;;;;5069464;28;20387;-62
2023/05/30 06:54:21;;;;;;;9.82;3.63;;;12.70;99.90;;;;;;5066468;28;20037;-61
2023/05/30 06:56:47;;;;;;;9.38;2.95;;;12.80;99.90;;;;;;5071512;28;20044;-63
2023/05/30 06:59:13;;;;;;;9.35;3.35;;;12.80;99.90;;;;;;5072567;28;20066;-63
2023/05/30 07:01:39;;;;;;;10.68;3.50;;;12.80;99.90;;;;;;5069209;28;20727;-62
2023/05/30 07:04:05;;;;;;;5.72;2.50;;;12.70;99.90;;;;;;5072061;28;20037;-64
2023/05/30 07:06:31;;;;;;;5.85;2.53;;;12.70;99.90;;;;;;5071655;28;20044;-62
2023/05/30 07:08:57;;;;;;;9.60;2.78;;;12.80;99.90;;;;;;5073038;28;20037;-63
2023/05/30 07:11:23;;;;;;;7.35;2.25;;;12.80;99.90;;;;;;5072851;28;20086;-63
2023/05/30 07:13:48;;;;;;;5.40;1.90;;;12.80;99.90;;;;;;5070884;28;20974;-63
2023/05/30 07:16:14;;;;;;;10.55;2.70;;;12.80;99.90;;;;;;5072380;28;20036;-63
2023/05/30 07:18:40;;;;;;;6.97;2.28;;;12.80;99.90;;;;;;5072671;28;20032;-64
2023/05/30 07:21:07;;;;;;;9.15;2.45;;;12.70;99.90;;;;;;5071829;28;20044;-61
2023/05/30 07:23:34;;;;;;;6.57;2.40;;;12.70;99.90;;;;;;5069118;28;20087;-61
2023/05/30 07:26:00;;;;;;;5.45;2.60;;;12.70;99.90;;;;;;5066206;28;20132;-63
2023/05/30 07:28:26;;;;;;;7.88;2.60;;;12.70;99.90;;;;;;5064457;28;20127;-62
2023/05/30 07:30:51;;;;;;;11.18;2.92;;;12.60;99.90;;;;;;5072125;28;20625;-64
2023/05/30 07:33:17;;;;;;;9.93;2.25;;;12.50;99.90;;;;;;5071744;28;20036;-62
2023/05/30 07:35:43;;;;;;;7.57;2.72;;;12.50;99.90;;;;;;5071533;28;20090;-62
2023/05/30 07:38:08;;;;;;;5.47;2.22;;;12.50;99.90;;;;;;5070856;28;20052;-62
2023/05/30 07:40:34;;;;;;;6.72;2.38;;;12.50;99.90;;;;;;5070327;28;20053;-65
2023/05/30 07:43:00;;;;;;;7.63;2.38;;;12.60;99.90;;;;;;5053461;28;20088;-63
2023/05/30 07:45:25;;;;;;;6.43;3.10;;;12.60;99.90;;;;;;5066084;28;20406;-63
2023/05/30 07:47:51;;;;;;;7.07;2.28;;;12.60;99.90;;;;;;5070391;28;20114;-64
2023/05/30 07:50:17;;;;;;;9.75;2.53;;;12.50;99.90;;;;;;5069586;28;20052;-63
2023/05/30 07:52:43;;;;;;;8.18;2.25;;;12.60;99.90;;;;;;5070843;28;20040;-63
2023/05/30 07:55:08;;;;;;;7.78;2.40;;;12.60;99.90;;;;;;5068598;28;20154;-61
2023/05/30 07:57:34;;;;;;;6.78;2.35;;;12.60;99.90;;;;;;5070978;28;20090;-63
2023/05/30 08:00:00;;;;;;;6.13;2.33;;;12.60;99.90;;;;;;5068921;28;20119;-62
2023/05/30 08:02:25;;;;;;;7.25;2.30;;;12.60;99.90;;;;;;5070400;28;20102;-64
2023/05/30 08:04:53;;;;;;;8.65;2.53;;;12.60;99.90;;;;;;5070467;28;20033;-63
2023/05/30 08:07:19;;;;;;;8.18;2.40;;;12.60;99.90;;;;;;5069183;28;20035;-64
2023/05/30 08:09:45;;;;;;;6.55;2.53;;;12.70;99.90;;;;;;5070843;28;20029;-63
2023/05/30 08:12:18;;;;;;;7.60;2.33;;;12.70;99.90;;;;;;5068983;28;20127;-62
2023/05/30 08:14:44;;;;;;;8.98;2.60;;;12.70;99.90;;;;;;5049292;28;20361;-62
2023/05/30 08:17:11;;;;;;;12.98;3.28;;;12.70;99.90;;;;;;5064616;28;20040;-62
2023/05/30 08:19:37;;;;;;;14.82;2.85;;;12.70;99.90;;;;;;5067154;28;20044;-62
2023/05/30 08:22:03;;;;;;;6.22;2.30;;;12.70;99.90;;;;;;5069231;28;20124;-62
2023/05/30 08:24:30;;;;;;;6.63;2.22;;;12.70;99.90;;;;;;5070522;28;20041;-62
2023/05/30 08:26:55;;;;;;;8.77;2.60;;;12.70;99.90;;;;;;5052813;28;20478;-62
2023/05/30 08:29:21;;;;;;;6.75;2.38;;;12.70;99.90;;;;;;5068855;28;20115;-61
2023/05/30 08:31:47;;;;;;;9.95;2.80;;;12.70;99.90;;;;;;5068765;28;20039;-64
2023/05/30 08:34:13;;;;;;;8.63;2.25;;;12.80;99.90;;;;;;5064789;28;20055;-61
2023/05/30 08:36:39;;;;;;;10.30;2.65;;;12.80;99.90;;;;;;5069911;28;20159;-64
2023/05/30 08:39:04;;;;;;;6.90;2.05;;;12.80;99.90;;;;;;5070052;28;20128;-62
2023/05/30 08:41:30;;;;;;;5.53;1.90;;;12.80;99.90;;;;;;5068729;28;20032;-62
2023/05/30 08:43:56;;;;;;;6.03;2.22;;;12.90;99.90;;;;;;5068611;28;20050;-61
2023/05/30 08:46:23;;;;;;;8.38;2.67;;;12.90;99.90;;;;;;5030119;28;1086453;-62
2023/05/30 08:48:48;;;;;;;11.93;2.45;;;12.90;99.90;;;;;;5070898;28;20115;-63
2023/05/30 08:51:15;;;;;;;8.80;2.60;;;12.90;99.90;;;;;;5069070;28;20127;-62
2023/05/30 08:53:56;;;;;;;8.15;2.53;;;12.90;99.90;;;;;;5069232;28;20058;-63
2023/05/30 08:56:32;;;;;;;8.60;2.22;;;13.00;99.90;;;;;;5069390;28;20455;-64
2023/05/30 08:59:00;;;;;;;8.70;2.10;;;13.10;99.90;;;;;;5069400;28;20040;-63
2023/05/30 09:01:27;;;;;;;5.63;2.10;;;13.10;99.90;;;;;;5068921;28;20054;-62
2023/05/30 09:03:53;;;;;;;5.63;2.20;;;13.10;99.90;;;;;;5068280;28;20049;-63
2023/05/30 09:06:21;;;;;;;8.57;2.92;;;13.20;99.90;;;;;;5067380;28;20036;-63
2023/05/30 09:08:51;;;;;;;6.80;2.33;;;13.20;99.90;;;;;;5070030;28;20040;-61
2023/05/30 09:11:18;;;;;;;7.63;2.47;;;13.20;99.90;;;;;;5069835;28;20072;-61
2023/05/30 09:13:45;;;;;;;6.68;2.15;;;13.20;99.90;;;;;;5069038;28;20553;-62
2023/05/30 09:16:11;;;;;;;25.52;4.10;;;13.30;99.90;;;;;;5069608;28;20525;-63
2023/05/30 09:18:37;;;;;;;7.60;2.80;;;13.30;99.90;;;;;;5035701;28;20109;-62
2023/05/30 09:21:03;;;;;;;4.97;2.47;;;13.30;99.90;;;;;;5070841;28;20049;-63
2023/05/30 09:23:29;;;;;;;3.70;2.08;;;13.30;99.90;;;;;;5069051;28;20045;-61
2023/05/30 09:25:59;;;;;;;7.70;2.03;;;13.30;99.90;;;;;;5069043;28;20403;-62
2023/05/30 09:28:26;;;;;;;4.20;1.88;;;13.40;99.90;;;;;;5069185;28;20056;-62
2023/05/30 09:30:56;;;;;;;3.80;1.60;;;13.50;99.90;;;;;;5068436;28;20036;-62
2023/05/30 09:33:22;;;;;;;3.95;1.42;;;13.60;99.90;;;;;;5051577;28;20499;-62
2023/05/30 09:35:56;;;;;;;2.63;1.30;;;13.70;99.90;;;;;;5068510;28;20452;-63
2023/05/30 09:38:24;;;;;;;4.00;1.63;;;13.70;99.90;;;;;;5070474;28;20537;-64
2023/05/30 09:40:56;;;;;;;5.03;1.58;;;13.70;99.90;;;;;;5068988;28;20045;-62
2023/05/30 09:43:34;;;;;;;2.42;1.23;;;13.70;99.90;;;;;;5069188;28;20044;-61
2023/05/30 09:46:06;;;;;;;3.50;1.67;;;13.70;99.90;;;;;;5066482;28;20032;-64
2023/05/30 09:48:32;;;;;;;;;;;13.70;99.90;;;;;;5068542;28;20055;-66
2023/05/30 09:51:01;;;;;;;2.60;1.70;;;13.60;99.90;;;;;;5068555;28;19973;-62
2023/05/30 09:53:30;;;;;;;5.18;1.80;;;13.60;99.90;;;;;;5069218;28;20114;-62
2023/05/30 09:55:57;;;;;;;3.05;1.58;;;13.60;99.90;;;;;;5051375;28;20090;-62
2023/05/30 09:58:23;;;;;;;4.07;1.70;;;13.50;99.90;;;;;;5068308;28;20100;-61
2023/05/30 10:00:53;;;;;;;2.75;1.60;;;13.60;99.90;;;;;;5069368;28;20036;-62
2023/05/30 10:03:43;;;;;;;2.60;1.55;;;13.60;99.90;;;;;;5069576;28;20040;-63
2023/05/30 10:06:15;;;;;;;4.13;1.80;;;13.70;99.90;;;;;;5067565;28;20048;-68
2023/05/30 10:08:50;;;;;;;2.65;1.55;;;13.70;99.90;;;;;;5069180;28;20470;-63
2023/05/30 10:11:16;;;;;;;1.70;1.40;;;13.70;99.90;;;;;;5070234;28;20037;-63
2023/05/30 10:13:42;;;;;;;3.88;1.50;;;13.80;99.90;;;;;;5069034;28;20419;-62
2023/05/30 10:16:14;;;;;;;2.67;1.27;;;13.80;99.90;;;;;;5067163;28;20056;-64
2023/05/30 10:18:48;;;;;;;2.88;1.38;;;13.90;99.90;;;;;;5065732;28;20093;-62
2023/05/30 10:21:14;;;;;;;1.95;1.35;;;14.00;99.90;;;;;;5069032;28;20483;-60
2023/05/30 10:23:41;;;;;;;6.00;1.92;;;14.00;99.90;;;;;;5067806;28;20044;-64
2023/05/30 10:26:10;;;;;;;3.40;1.58;;;14.00;99.90;;;;;;5069143;28;20119;-64
2023/05/30 10:28:38;;;;;;;4.93;1.40;;;14.10;99.90;;;;;;5066332;28;20083;-64
2023/05/30 10:31:04;;;;;;;4.57;1.70;;;14.10;99.90;;;;;;5068382;28;20037;-66
2023/05/30 10:33:36;;;;;;;3.40;1.50;;;14.10;99.90;;;;;;5067926;28;20393;-63
2023/05/30 10:36:02;;;;;;;1.50;1.20;;;14.20;99.90;;;;;;5067905;28;20037;-64
2023/05/30 10:38:31;;;;;;;2.28;1.30;;;14.40;99.90;;;;;;5066545;28;20048;-64
2023/05/30 10:41:12;;;;;;;2.65;1.40;;;14.50;99.90;;;;;;5066974;28;20093;-63
2023/05/30 10:43:49;;;;;;;1.77;0.93;;;14.60;99.90;;;;;;5069685;28;20127;-64
2023/05/30 10:46:52;;;;;;;1.60;1.42;;;14.70;99.90;;;;;;5068831;28;20067;-63
2023/05/30 10:49:23;;;;;;;3.20;2.17;;;14.70;99.90;;;;;;5068860;28;20420;-61
2023/05/30 10:52:01;;;;;;;1.65;1.45;;;14.60;99.90;;;;;;5068928;28;20406;-63
2023/05/30 10:54:30;;;;;;;2.75;1.40;;;14.60;99.90;;;;;;5069010;28;20072;-62
2023/05/30 10:56:56;;;;;;;2.13;1.25;;;14.70;99.90;;;;;;5068946;28;20051;-63
2023/05/30 10:59:22;;;;;;;1.75;1.20;;;14.60;99.90;;;;;;5065635;28;20051;-63
2023/05/30 11:02:07;;;;;;;2.20;1.50;;;14.60;99.90;;;;;;5050434;28;20092;-62
2023/05/30 11:04:35;;;;;;;2.10;1.40;;;14.60;99.90;;;;;;5067760;28;20564;-63
2023/05/30 11:07:06;;;;;;;1.88;1.50;;;14.70;99.90;;;;;;5069081;28;20039;-60
2023/05/30 11:09:32;;;;;;;2.63;1.33;;;14.70;99.90;;;;;;5067391;28;20032;-63
2023/05/30 11:12:01;;;;;;;1.90;1.20;;;14.70;99.90;;;;;;5068227;28;20041;-63
2023/05/30 11:14:32;;;;;;;2.80;1.27;;;14.70;99.90;;;;;;5066815;28;20049;-65
2023/05/30 11:17:04;;;;;;;2.10;1.10;;;14.70;99.90;;;;;;5069033;28;20037;-63
2023/05/30 11:19:37;;;;;;;1.77;1.10;;;14.60;99.90;;;;;;5069670;28;20036;-61
2023/05/30 11:22:04;;;;;;;1.48;1.10;;;14.60;99.90;;;;;;5068058;28;20044;-62
2023/05/30 11:24:30;;;;;;;2.00;1.25;;;14.50;99.90;;;;;;5066215;28;20522;-62
2023/05/30 11:27:07;;;;;;;1.15;1.05;;;14.50;99.90;;;;;;5070878;28;20461;-63
2023/05/30 11:29:58;;;;;;;1.40;1.20;;;14.40;99.90;;;;;;5070664;28;20086;-63
2023/05/30 11:32:28;;;;;;;1.25;0.90;;;14.40;99.90;;;;;;5070769;28;20048;-66
2023/05/30 11:35:03;;;;;;;1.33;0.85;;;14.40;99.90;;;;;;5070156;28;20502;-64
2023/05/30 11:37:35;;;;;;;2.28;1.02;;;14.40;99.90;;;;;;5070075;28;20040;-63
2023/05/30 11:40:01;;;;;;;1.63;1.00;;;14.40;99.90;;;;;;5071543;28;20051;-64
2023/05/30 11:42:27;;;;;;;1.92;0.90;;;14.50;99.90;;;;;;5072285;28;20453;-63
2023/05/30 11:44:52;;;;;;;0.90;0.82;;;14.50;99.90;;;;;;5069418;28;20036;-65
2023/05/30 11:47:18;;;;;;;0.80;0.80;;;14.60;99.90;;;;;;5071813;28;20045;-62
2023/05/30 11:49:48;;;;;;;1.23;0.93;;;14.70;99.90;;;;;;5069320;28;20052;-63
2023/05/30 11:52:14;;;;;;;1.67;0.90;;;14.70;99.90;;;;;;5070947;28;20524;-62
2023/05/30 11:54:43;;;;;;;0.73;0.70;;;14.80;99.90;;;;;;5071584;28;20039;-64
2023/05/30 11:57:16;;;;;;;1.13;0.60;;;14.80;99.90;;;;;;5072350;28;20044;-63
2023/05/30 11:59:43;;;;;;;1.20;0.93;;;14.90;99.90;;;;;;5071255;28;20080;-62
2023/05/30 12:02:09;;;;;;;0.88;0.65;;;14.80;99.90;;;;;;5052276;28;20044;-64
2023/05/30 12:04:37;;;;;;;0.90;0.70;;;14.80;99.90;;;;;;5069658;28;20063;-63
2023/05/30 12:07:05;;;;;;;1.10;0.90;;;14.90;99.90;;;;;;5070502;28;20530;-62
2023/05/30 12:09:38;;;;;;;1.35;0.80;;;14.90;99.90;;;;;;5071552;28;20526;-61
2023/05/30 12:12:05;;;;;;;1.33;0.80;;;14.90;99.90;;;;;;5069652;28;20047;-61
2023/05/30 12:15:01;;;;;;;1.45;0.90;;;14.90;99.90;;;;;;5070359;28;20050;-63
2023/05/30 12:17:28;;;;;;;2.25;1.10;;;14.90;99.90;;;;;;5053654;28;20453;-63
2023/05/30 12:20:09;;;;;;;1.63;0.93;;;14.90;99.90;;;;;;5071323;28;20033;-63
2023/05/30 12:22:35;;;;;;;1.63;1.05;;;14.90;99.90;;;;;;5068189;28;20076;-63
2023/05/30 12:25:09;;;;;;;1.67;0.90;;;14.90;99.90;;;;;;5052703;28;20064;-64
2023/05/30 12:27:34;;;;;;;2.90;0.80;;;15.00;99.90;;;;;;5069897;28;20040;-64
2023/05/30 12:30:12;;;;;;;1.17;1.00;;;14.90;99.90;;;;;;5069719;28;20040;-62
2023/05/30 12:32:38;;;;;;;2.03;0.88;;;15.00;99.90;;;;;;5069361;28;20050;-63
2023/05/30 12:35:04;;;;;;;1.80;0.90;;;15.00;99.90;;;;;;5068284;28;20048;-63
2023/05/30 12:37:30;;;;;;;1.38;0.80;;;15.00;99.90;;;;;;5070209;28;20123;-62
2023/05/30 12:40:03;;;;;;;1.45;0.98;;;14.80;99.90;;;;;;5069789;28;20432;-62
2023/05/30 12:42:30;;;;;;;2.55;1.10;;;14.70;99.90;;;;;;5070879;28;20036;-64
2023/05/30 12:45:01;;;;;;;1.55;0.65;;;14.70;99.90;;;;;;5051043;28;20072;-63
2023/05/30 12:47:27;;;;;;;1.95;0.80;;;14.60;99.90;;;;;;5069375;28;20060;-65